Hauptseite
METAR-TAF:

METAR-TAF

Flughäfen :

Flughafen Hannover-Langenhagen

Hannover, Deutschland

Breite: 52-28N, Länge: 009-41E, Höhe: 56 m

Beobachtung

Neuester Wetterbericht von vor 32 Minuten, um 05:50 UTC
Wind 6 kt aus Ost/Südost
Temperatur -7°C
Luftfeuchtigkeit 79%
Luftdruck 1001 hPa
Sichtweite: 9000 m

METAR: EDDV 230550Z 11006KT 9000 NSC M07/M10 Q1001 NOSIG

Zeit: 07:22 (06:22 UTC)

Prognose

Neuester Wetterbericht von vor 1 Stunde und 22 Minuten, um 05:00 UTC
Gültige Prognose vom 23 um 06 UTC bis 24 um 06 UTC
Wind 8 kt aus Ost
Sichtweite 10 km oder mehr
keine Wolken unter 1500 m und keine Kumulonimbus oder Gewitterwolken
Wahrscheinlichkeit 30% :
Zeitweise
vom 23 um 06 UTC bis 23 um 09 UTC
Durchbrochene Bewölkung in der Höhe von 1200 ft

TAF: EDDV 230500Z 2306/2406 10008KT CAVOK PROB30 TEMPO 2306/2309 BKN012

Wetterbeobachtungen und Prognosen von mehr als 4000 Flughäfen (METAR und TAF Bericht).

Die verfügbaren Stationen werden durch gelbe und rote Markierungen auf der Karte dargestellt.

Führen Sie die Maus auf sie, um den Namen der Station zu sehen.

Darauf klicken, um die Beobachtung von Wetterbeobachtungen und Prognosen zu sehen.

Um die Karte zu ändern : klicken Sie auf den grünen Tasten mit einem schwarzen Kreuz Zum Vergrößern, auf den grünen Button mit einem Gedankenstrich zu verkleinern, oder auf die grünen Pfeile für benachbarte Karten.


METAR-TAF: